sensor_id;sensor_type;location;lat;lon;timestamp;P1;durP1;ratioP1;P2;durP2;ratioP2
1416;SDS011;703;51.162;13.574;2023-07-13T00:01:43;10.97;;;3.70;;
1416;SDS011;703;51.162;13.574;2023-07-13T00:04:11;4.00;;;3.60;;
1416;SDS011;703;51.162;13.574;2023-07-13T00:06:37;4.00;;;2.90;;
1416;SDS011;703;51.162;13.574;2023-07-13T00:09:02;10.23;;;3.10;;
1416;SDS011;703;51.162;13.574;2023-07-13T00:11:28;4.37;;;3.20;;
1416;SDS011;703;51.162;13.574;2023-07-13T00:13:53;3.63;;;2.77;;
1416;SDS011;703;51.162;13.574;2023-07-13T00:16:19;4.87;;;3.20;;
1416;SDS011;703;51.162;13.574;2023-07-13T00:18:45;3.30;;;3.00;;
1416;SDS011;703;51.162;13.574;2023-07-13T00:21:12;6.83;;;3.00;;
1416;SDS011;703;51.162;13.574;2023-07-13T00:23:38;5.73;;;2.50;;
1416;SDS011;703;51.162;13.574;2023-07-13T00:26:06;3.67;;;3.23;;
1416;SDS011;703;51.162;13.574;2023-07-13T00:28:33;4.20;;;3.80;;
1416;SDS011;703;51.162;13.574;2023-07-13T00:30:59;3.87;;;3.53;;
1416;SDS011;703;51.162;13.574;2023-07-13T00:33:25;5.57;;;3.90;;
1416;SDS011;703;51.162;13.574;2023-07-13T00:35:53;3.50;;;2.93;;
1416;SDS011;703;51.162;13.574;2023-07-13T00:38:19;4.93;;;3.57;;
1416;SDS011;703;51.162;13.574;2023-07-13T00:40:45;5.40;;;3.77;;
1416;SDS011;703;51.162;13.574;2023-07-13T00:43:13;5.13;;;3.30;;
1416;SDS011;703;51.162;13.574;2023-07-13T00:48:12;3.50;;;3.20;;
1416;SDS011;703;51.162;13.574;2023-07-13T00:50:42;2.97;;;2.77;;
1416;SDS011;703;51.162;13.574;2023-07-13T00:53:09;8.20;;;3.90;;
1416;SDS011;703;51.162;13.574;2023-07-13T00:55:36;5.00;;;3.40;;
1416;SDS011;703;51.162;13.574;2023-07-13T00:58:02;4.10;;;3.00;;
1416;SDS011;703;51.162;13.574;2023-07-13T01:00:30;5.97;;;3.57;;
1416;SDS011;703;51.162;13.574;2023-07-13T01:02:55;3.97;;;3.57;;
1416;SDS011;703;51.162;13.574;2023-07-13T01:05:22;3.60;;;3.30;;
1416;SDS011;703;51.162;13.574;2023-07-13T01:07:49;6.77;;;3.77;;
1416;SDS011;703;51.162;13.574;2023-07-13T01:10:17;5.30;;;3.33;;
1416;SDS011;703;51.162;13.574;2023-07-13T01:12:45;4.03;;;3.50;;
1416;SDS011;703;51.162;13.574;2023-07-13T01:18:05;6.03;;;3.60;;
1416;SDS011;703;51.162;13.574;2023-07-13T01:20:34;4.30;;;3.20;;
1416;SDS011;703;51.162;13.574;2023-07-13T01:23:01;6.43;;;3.40;;
1416;SDS011;703;51.162;13.574;2023-07-13T01:25:38;4.37;;;3.97;;
1416;SDS011;703;51.162;13.574;2023-07-13T01:28:04;5.67;;;3.50;;
1416;SDS011;703;51.162;13.574;2023-07-13T01:30:31;3.37;;;3.07;;
1416;SDS011;703;51.162;13.574;2023-07-13T01:32:57;4.13;;;3.60;;
1416;SDS011;703;51.162;13.574;2023-07-13T01:35:23;5.93;;;3.90;;
1416;SDS011;703;51.162;13.574;2023-07-13T01:37:50;4.43;;;3.63;;
1416;SDS011;703;51.162;13.574;2023-07-13T01:40:16;5.10;;;3.93;;
1416;SDS011;703;51.162;13.574;2023-07-13T01:42:42;4.30;;;3.90;;
1416;SDS011;703;51.162;13.574;2023-07-13T01:45:08;4.60;;;4.13;;
1416;SDS011;703;51.162;13.574;2023-07-13T01:47:33;3.37;;;3.10;;
1416;SDS011;703;51.162;13.574;2023-07-13T01:49:59;4.33;;;3.40;;
1416;SDS011;703;51.162;13.574;2023-07-13T01:52:25;4.03;;;3.63;;
1416;SDS011;703;51.162;13.574;2023-07-13T01:54:50;3.47;;;3.07;;
1416;SDS011;703;51.162;13.574;2023-07-13T01:57:16;5.33;;;4.50;;
1416;SDS011;703;51.162;13.574;2023-07-13T01:59:41;3.83;;;3.50;;
1416;SDS011;703;51.162;13.574;2023-07-13T02:02:07;4.13;;;3.77;;
1416;SDS011;703;51.162;13.574;2023-07-13T02:04:33;4.13;;;3.77;;
1416;SDS011;703;51.162;13.574;2023-07-13T02:06:59;5.27;;;3.90;;
1416;SDS011;703;51.162;13.574;2023-07-13T02:09:24;4.10;;;3.63;;
1416;SDS011;703;51.162;13.574;2023-07-13T02:11:50;4.33;;;3.97;;
1416;SDS011;703;51.162;13.574;2023-07-13T02:14:15;4.37;;;3.97;;
1416;SDS011;703;51.162;13.574;2023-07-13T02:16:42;7.73;;;3.57;;
1416;SDS011;703;51.162;13.574;2023-07-13T02:19:08;6.93;;;3.57;;
1416;SDS011;703;51.162;13.574;2023-07-13T02:21:34;5.50;;;3.80;;
1416;SDS011;703;51.162;13.574;2023-07-13T02:23:59;4.23;;;3.60;;
1416;SDS011;703;51.162;13.574;2023-07-13T02:26:25;4.60;;;4.20;;
1416;SDS011;703;51.162;13.574;2023-07-13T02:28:52;5.10;;;4.60;;
1416;SDS011;703;51.162;13.574;2023-07-13T02:31:17;4.00;;;3.60;;
1416;SDS011;703;51.162;13.574;2023-07-13T02:33:43;11.37;;;4.40;;
1416;SDS011;703;51.162;13.574;2023-07-13T02:36:09;6.03;;;4.83;;
1416;SDS011;703;51.162;13.574;2023-07-13T02:38:35;5.13;;;4.30;;
1416;SDS011;703;51.162;13.574;2023-07-13T02:41:04;4.60;;;3.97;;
1416;SDS011;703;51.162;13.574;2023-07-13T02:43:31;5.30;;;3.87;;
1416;SDS011;703;51.162;13.574;2023-07-13T02:45:58;5.93;;;4.37;;
1416;SDS011;703;51.162;13.574;2023-07-13T02:48:29;4.30;;;3.90;;
1416;SDS011;703;51.162;13.574;2023-07-13T02:50:55;5.50;;;4.47;;
1416;SDS011;703;51.162;13.574;2023-07-13T02:53:20;5.57;;;4.10;;
1416;SDS011;703;51.162;13.574;2023-07-13T02:55:46;6.90;;;3.90;;
1416;SDS011;703;51.162;13.574;2023-07-13T02:58:12;4.37;;;4.00;;
1416;SDS011;703;51.162;13.574;2023-07-13T03:00:41;5.17;;;4.50;;
1416;SDS011;703;51.162;13.574;2023-07-13T03:03:07;5.00;;;4.57;;
1416;SDS011;703;51.162;13.574;2023-07-13T03:05:33;4.40;;;4.00;;
1416;SDS011;703;51.162;13.574;2023-07-13T03:07:59;5.00;;;4.33;;
1416;SDS011;703;51.162;13.574;2023-07-13T03:10:24;5.37;;;4.97;;
1416;SDS011;703;51.162;13.574;2023-07-13T03:12:50;5.57;;;4.60;;
1416;SDS011;703;51.162;13.574;2023-07-13T03:15:16;6.40;;;5.90;;
1416;SDS011;703;51.162;13.574;2023-07-13T03:17:41;6.43;;;5.93;;
1416;SDS011;703;51.162;13.574;2023-07-13T03:20:07;6.43;;;5.83;;
1416;SDS011;703;51.162;13.574;2023-07-13T03:22:33;6.93;;;6.33;;
1416;SDS011;703;51.162;13.574;2023-07-13T03:24:59;6.93;;;6.33;;
1416;SDS011;703;51.162;13.574;2023-07-13T03:27:24;6.63;;;6.13;;
1416;SDS011;703;51.162;13.574;2023-07-13T03:29:50;7.27;;;6.73;;
1416;SDS011;703;51.162;13.574;2023-07-13T03:32:16;7.50;;;6.90;;
1416;SDS011;703;51.162;13.574;2023-07-13T03:34:41;7.00;;;6.40;;
1416;SDS011;703;51.162;13.574;2023-07-13T03:37:07;7.50;;;7.00;;
1416;SDS011;703;51.162;13.574;2023-07-13T03:39:32;7.80;;;7.10;;
1416;SDS011;703;51.162;13.574;2023-07-13T03:41:58;6.70;;;6.20;;
1416;SDS011;703;51.162;13.574;2023-07-13T03:44:23;6.50;;;5.90;;
1416;SDS011;703;51.162;13.574;2023-07-13T03:46:49;7.27;;;6.77;;
1416;SDS011;703;51.162;13.574;2023-07-13T03:49:15;7.43;;;6.60;;
1416;SDS011;703;51.162;13.574;2023-07-13T03:51:41;7.10;;;6.50;;
1416;SDS011;703;51.162;13.574;2023-07-13T03:54:06;7.53;;;6.93;;
1416;SDS011;703;51.162;13.574;2023-07-13T03:56:32;7.97;;;6.30;;
1416;SDS011;703;51.162;13.574;2023-07-13T03:58:58;7.60;;;7.10;;
1416;SDS011;703;51.162;13.574;2023-07-13T04:01:24;7.87;;;7.07;;
1416;SDS011;703;51.162;13.574;2023-07-13T04:03:51;7.30;;;6.70;;
1416;SDS011;703;51.162;13.574;2023-07-13T04:06:19;8.23;;;7.00;;
1416;SDS011;703;51.162;13.574;2023-07-13T04:08:46;7.40;;;6.80;;
1416;SDS011;703;51.162;13.574;2023-07-13T04:11:14;7.63;;;6.93;;
1416;SDS011;703;51.162;13.574;2023-07-13T04:13:39;6.70;;;6.20;;
1416;SDS011;703;51.162;13.574;2023-07-13T04:16:05;7.90;;;7.40;;
1416;SDS011;703;51.162;13.574;2023-07-13T04:18:30;7.43;;;6.70;;
1416;SDS011;703;51.162;13.574;2023-07-13T04:20:56;12.03;;;8.20;;
1416;SDS011;703;51.162;13.574;2023-07-13T04:23:22;8.97;;;7.53;;
1416;SDS011;703;51.162;13.574;2023-07-13T04:25:47;9.40;;;8.40;;
1416;SDS011;703;51.162;13.574;2023-07-13T04:28:15;8.17;;;7.43;;
1416;SDS011;703;51.162;13.574;2023-07-13T04:30:42;14.37;;;8.10;;
1416;SDS011;703;51.162;13.574;2023-07-13T04:33:08;9.30;;;8.40;;
1416;SDS011;703;51.162;13.574;2023-07-13T04:35:34;8.10;;;7.40;;
1416;SDS011;703;51.162;13.574;2023-07-13T04:38:00;8.00;;;7.30;;
1416;SDS011;703;51.162;13.574;2023-07-13T04:40:26;9.10;;;8.30;;
1416;SDS011;703;51.162;13.574;2023-07-13T04:42:52;7.70;;;7.10;;
1416;SDS011;703;51.162;13.574;2023-07-13T04:45:17;8.63;;;7.83;;
1416;SDS011;703;51.162;13.574;2023-07-13T04:47:43;7.77;;;7.07;;
1416;SDS011;703;51.162;13.574;2023-07-13T04:50:09;7.53;;;7.03;;
1416;SDS011;703;51.162;13.574;2023-07-13T04:52:36;10.50;;;7.00;;
1416;SDS011;703;51.162;13.574;2023-07-13T04:55:02;9.47;;;8.40;;
1416;SDS011;703;51.162;13.574;2023-07-13T04:57:28;7.97;;;7.20;;
1416;SDS011;703;51.162;13.574;2023-07-13T04:59:54;8.20;;;7.50;;
1416;SDS011;703;51.162;13.574;2023-07-13T05:02:22;14.53;;;8.00;;
1416;SDS011;703;51.162;13.574;2023-07-13T05:04:48;8.20;;;7.50;;
1416;SDS011;703;51.162;13.574;2023-07-13T05:07:14;8.30;;;7.63;;
1416;SDS011;703;51.162;13.574;2023-07-13T05:09:40;8.50;;;7.80;;
1416;SDS011;703;51.162;13.574;2023-07-13T05:12:06;8.13;;;7.53;;
1416;SDS011;703;51.162;13.574;2023-07-13T05:14:33;10.17;;;6.93;;
1416;SDS011;703;51.162;13.574;2023-07-13T05:16:58;8.90;;;8.10;;
1416;SDS011;703;51.162;13.574;2023-07-13T05:19:24;7.70;;;6.93;;
1416;SDS011;703;51.162;13.574;2023-07-13T05:21:50;7.77;;;7.07;;
1416;SDS011;703;51.162;13.574;2023-07-13T05:24:15;7.50;;;6.80;;
1416;SDS011;703;51.162;13.574;2023-07-13T05:26:41;7.13;;;6.60;;
1416;SDS011;703;51.162;13.574;2023-07-13T05:29:06;8.30;;;7.60;;
1416;SDS011;703;51.162;13.574;2023-07-13T05:31:32;7.83;;;7.13;;
1416;SDS011;703;51.162;13.574;2023-07-13T05:33:58;7.70;;;7.07;;
1416;SDS011;703;51.162;13.574;2023-07-13T05:36:23;6.90;;;6.40;;
1416;SDS011;703;51.162;13.574;2023-07-13T05:38:49;6.50;;;6.00;;
1416;SDS011;703;51.162;13.574;2023-07-13T05:41:14;6.57;;;6.07;;
1416;SDS011;703;51.162;13.574;2023-07-13T05:43:40;7.10;;;6.40;;
1416;SDS011;703;51.162;13.574;2023-07-13T05:46:05;8.20;;;7.50;;
1416;SDS011;703;51.162;13.574;2023-07-13T05:48:31;9.60;;;6.63;;
1416;SDS011;703;51.162;13.574;2023-07-13T05:50:57;7.93;;;6.90;;
1416;SDS011;703;51.162;13.574;2023-07-13T05:53:23;8.37;;;7.60;;
1416;SDS011;703;51.162;13.574;2023-07-13T05:55:48;11.83;;;7.00;;
1416;SDS011;703;51.162;13.574;2023-07-13T05:58:18;9.33;;;7.50;;
1416;SDS011;703;51.162;13.574;2023-07-13T06:00:44;7.90;;;7.13;;
1416;SDS011;703;51.162;13.574;2023-07-13T06:03:10;7.80;;;7.03;;
1416;SDS011;703;51.162;13.574;2023-07-13T06:05:36;16.20;;;6.70;;
1416;SDS011;703;51.162;13.574;2023-07-13T06:08:03;7.80;;;6.93;;
1416;SDS011;703;51.162;13.574;2023-07-13T06:10:29;14.80;;;6.90;;
1416;SDS011;703;51.162;13.574;2023-07-13T06:13:01;9.00;;;7.47;;
1416;SDS011;703;51.162;13.574;2023-07-13T06:15:26;8.27;;;7.40;;
1416;SDS011;703;51.162;13.574;2023-07-13T06:17:52;7.70;;;6.90;;
1416;SDS011;703;51.162;13.574;2023-07-13T06:20:18;9.10;;;6.60;;
1416;SDS011;703;51.162;13.574;2023-07-13T06:22:43;10.20;;;6.00;;
1416;SDS011;703;51.162;13.574;2023-07-13T06:25:09;7.87;;;7.07;;
1416;SDS011;703;51.162;13.574;2023-07-13T06:27:34;10.50;;;6.60;;
1416;SDS011;703;51.162;13.574;2023-07-13T06:30:00;7.43;;;6.73;;
1416;SDS011;703;51.162;13.574;2023-07-13T06:32:26;8.73;;;7.60;;
1416;SDS011;703;51.162;13.574;2023-07-13T06:34:51;6.77;;;6.17;;
1416;SDS011;703;51.162;13.574;2023-07-13T06:37:17;6.90;;;6.40;;
1416;SDS011;703;51.162;13.574;2023-07-13T06:39:43;10.83;;;7.10;;
1416;SDS011;703;51.162;13.574;2023-07-13T06:42:09;10.43;;;6.90;;
1416;SDS011;703;51.162;13.574;2023-07-13T06:44:35;7.57;;;6.87;;
1416;SDS011;703;51.162;13.574;2023-07-13T06:47:01;8.00;;;6.03;;
1416;SDS011;703;51.162;13.574;2023-07-13T06:49:27;6.97;;;6.47;;
1416;SDS011;703;51.162;13.574;2023-07-13T06:51:52;7.07;;;6.03;;
1416;SDS011;703;51.162;13.574;2023-07-13T06:54:18;7.00;;;6.40;;
1416;SDS011;703;51.162;13.574;2023-07-13T06:56:43;7.53;;;6.93;;
1416;SDS011;703;51.162;13.574;2023-07-13T06:59:09;7.73;;;6.77;;
1416;SDS011;703;51.162;13.574;2023-07-13T07:01:34;7.80;;;7.00;;
1416;SDS011;703;51.162;13.574;2023-07-13T07:04:00;7.07;;;6.47;;
1416;SDS011;703;51.162;13.574;2023-07-13T07:06:25;6.00;;;5.50;;
1416;SDS011;703;51.162;13.574;2023-07-13T07:08:51;6.57;;;5.97;;
1416;SDS011;703;51.162;13.574;2023-07-13T07:11:21;7.83;;;6.97;;
1416;SDS011;703;51.162;13.574;2023-07-13T07:13:49;6.33;;;5.83;;
1416;SDS011;703;51.162;13.574;2023-07-13T07:16:16;7.00;;;6.03;;
1416;SDS011;703;51.162;13.574;2023-07-13T07:18:43;10.23;;;6.10;;
1416;SDS011;703;51.162;13.574;2023-07-13T07:21:09;6.10;;;5.60;;
1416;SDS011;703;51.162;13.574;2023-07-13T07:23:35;6.53;;;5.90;;
1416;SDS011;703;51.162;13.574;2023-07-13T07:26:00;6.30;;;5.60;;
1416;SDS011;703;51.162;13.574;2023-07-13T07:28:26;6.50;;;6.00;;
1416;SDS011;703;51.162;13.574;2023-07-13T07:30:54;5.90;;;5.50;;
1416;SDS011;703;51.162;13.574;2023-07-13T07:33:21;5.90;;;5.40;;
1416;SDS011;703;51.162;13.574;2023-07-13T07:35:46;6.37;;;5.87;;
1416;SDS011;703;51.162;13.574;2023-07-13T07:38:12;5.23;;;4.80;;
1416;SDS011;703;51.162;13.574;2023-07-13T07:40:38;5.33;;;4.87;;
1416;SDS011;703;51.162;13.574;2023-07-13T07:43:05;7.33;;;6.73;;
1416;SDS011;703;51.162;13.574;2023-07-13T07:45:35;5.23;;;4.53;;
1416;SDS011;703;51.162;13.574;2023-07-13T07:48:02;8.00;;;5.57;;
1416;SDS011;703;51.162;13.574;2023-07-13T07:50:29;5.67;;;5.20;;
1416;SDS011;703;51.162;13.574;2023-07-13T07:52:55;5.90;;;5.20;;
1416;SDS011;703;51.162;13.574;2023-07-13T07:55:24;5.80;;;5.23;;
1416;SDS011;703;51.162;13.574;2023-07-13T07:57:51;5.60;;;5.10;;
1416;SDS011;703;51.162;13.574;2023-07-13T08:00:17;6.17;;;5.00;;
1416;SDS011;703;51.162;13.574;2023-07-13T08:02:43;4.83;;;4.43;;
1416;SDS011;703;51.162;13.574;2023-07-13T08:05:09;5.13;;;4.83;;
1416;SDS011;703;51.162;13.574;2023-07-13T08:07:36;6.17;;;5.67;;
1416;SDS011;703;51.162;13.574;2023-07-13T08:10:02;6.33;;;5.80;;
1416;SDS011;703;51.162;13.574;2023-07-13T08:12:28;5.43;;;4.97;;
1416;SDS011;703;51.162;13.574;2023-07-13T08:14:54;6.03;;;5.33;;
1416;SDS011;703;51.162;13.574;2023-07-13T08:17:22;5.37;;;4.97;;
1416;SDS011;703;51.162;13.574;2023-07-13T08:19:48;7.53;;;5.87;;
1416;SDS011;703;51.162;13.574;2023-07-13T08:22:14;5.70;;;5.30;;
1416;SDS011;703;51.162;13.574;2023-07-13T08:24:40;5.50;;;5.10;;
1416;SDS011;703;51.162;13.574;2023-07-13T08:27:07;5.67;;;5.03;;
1416;SDS011;703;51.162;13.574;2023-07-13T08:29:33;5.00;;;4.60;;
1416;SDS011;703;51.162;13.574;2023-07-13T08:31:59;5.37;;;4.83;;
1416;SDS011;703;51.162;13.574;2023-07-13T08:34:24;4.50;;;4.10;;
1416;SDS011;703;51.162;13.574;2023-07-13T08:36:50;4.40;;;4.10;;
1416;SDS011;703;51.162;13.574;2023-07-13T08:39:15;7.83;;;4.97;;
1416;SDS011;703;51.162;13.574;2023-07-13T08:41:41;6.67;;;4.70;;
1416;SDS011;703;51.162;13.574;2023-07-13T08:44:15;4.70;;;4.03;;
1416;SDS011;703;51.162;13.574;2023-07-13T08:46:46;4.27;;;3.87;;
1416;SDS011;703;51.162;13.574;2023-07-13T08:49:17;5.10;;;4.43;;
1416;SDS011;703;51.162;13.574;2023-07-13T08:51:50;5.13;;;4.67;;
1416;SDS011;703;51.162;13.574;2023-07-13T08:57:15;4.87;;;4.37;;
1416;SDS011;703;51.162;13.574;2023-07-13T08:59:42;4.20;;;3.90;;
1416;SDS011;703;51.162;13.574;2023-07-13T09:02:26;5.20;;;4.10;;
1416;SDS011;703;51.162;13.574;2023-07-13T09:05:06;4.10;;;3.80;;
1416;SDS011;703;51.162;13.574;2023-07-13T09:10:46;5.13;;;4.53;;
1416;SDS011;703;51.162;13.574;2023-07-13T09:15:49;4.60;;;4.20;;
1416;SDS011;703;51.162;13.574;2023-07-13T09:18:20;4.43;;;4.03;;
1416;SDS011;703;51.162;13.574;2023-07-13T09:21:02;3.90;;;3.60;;
1416;SDS011;703;51.162;13.574;2023-07-13T09:23:35;4.73;;;4.33;;
1416;SDS011;703;51.162;13.574;2023-07-13T09:26:19;4.10;;;3.80;;
1416;SDS011;703;51.162;13.574;2023-07-13T09:29:11;5.33;;;4.13;;
1416;SDS011;703;51.162;13.574;2023-07-13T09:31:52;4.90;;;4.17;;
1416;SDS011;703;51.162;13.574;2023-07-13T09:34:20;5.57;;;4.07;;
1416;SDS011;703;51.162;13.574;2023-07-13T09:36:46;4.10;;;3.80;;
1416;SDS011;703;51.162;13.574;2023-07-13T09:39:15;7.70;;;3.70;;
1416;SDS011;703;51.162;13.574;2023-07-13T09:42:00;4.40;;;4.00;;
1416;SDS011;703;51.162;13.574;2023-07-13T09:52:24;6.30;;;3.70;;
1416;SDS011;703;51.162;13.574;2023-07-13T09:54:52;4.13;;;3.73;;
1416;SDS011;703;51.162;13.574;2023-07-13T09:57:24;4.50;;;4.20;;
1416;SDS011;703;51.162;13.574;2023-07-13T09:59:52;4.00;;;3.50;;
1416;SDS011;703;51.162;13.574;2023-07-13T10:02:25;4.20;;;3.30;;
1416;SDS011;703;51.162;13.574;2023-07-13T10:05:02;4.47;;;4.07;;
1416;SDS011;703;51.162;13.574;2023-07-13T10:07:30;4.10;;;3.70;;
1416;SDS011;703;51.162;13.574;2023-07-13T10:09:59;3.50;;;3.20;;
1416;SDS011;703;51.162;13.574;2023-07-13T10:12:27;4.33;;;4.03;;
1416;SDS011;703;51.162;13.574;2023-07-13T10:14:55;3.97;;;3.20;;
1416;SDS011;703;51.162;13.574;2023-07-13T10:17:26;5.50;;;4.20;;
1416;SDS011;703;51.162;13.574;2023-07-13T10:19:58;8.53;;;4.70;;
1416;SDS011;703;51.162;13.574;2023-07-13T10:22:36;3.60;;;3.30;;
1416;SDS011;703;51.162;13.574;2023-07-13T10:25:25;4.17;;;3.70;;
1416;SDS011;703;51.162;13.574;2023-07-13T10:30:55;5.97;;;3.63;;
1416;SDS011;703;51.162;13.574;2023-07-13T10:33:24;4.07;;;3.77;;
1416;SDS011;703;51.162;13.574;2023-07-13T10:35:50;4.40;;;4.00;;
1416;SDS011;703;51.162;13.574;2023-07-13T10:38:22;5.33;;;4.60;;
1416;SDS011;703;51.162;13.574;2023-07-13T10:43:20;6.90;;;4.10;;
1416;SDS011;703;51.162;13.574;2023-07-13T10:45:51;4.43;;;3.97;;
1416;SDS011;703;51.162;13.574;2023-07-13T10:48:19;4.67;;;4.33;;
1416;SDS011;703;51.162;13.574;2023-07-13T10:50:48;5.20;;;4.80;;
1416;SDS011;703;51.162;13.574;2023-07-13T10:58:19;4.80;;;4.30;;
1416;SDS011;703;51.162;13.574;2023-07-13T11:03:31;3.90;;;3.60;;
1416;SDS011;703;51.162;13.574;2023-07-13T11:06:16;3.97;;;3.53;;
1416;SDS011;703;51.162;13.574;2023-07-13T11:08:58;6.17;;;3.70;;
1416;SDS011;703;51.162;13.574;2023-07-13T11:11:42;4.07;;;3.77;;
1416;SDS011;703;51.162;13.574;2023-07-13T11:16:54;5.00;;;4.37;;
1416;SDS011;703;51.162;13.574;2023-07-13T11:24:28;4.30;;;4.00;;
1416;SDS011;703;51.162;13.574;2023-07-13T11:27:34;4.10;;;3.70;;
1416;SDS011;703;51.162;13.574;2023-07-13T11:31:00;4.50;;;3.67;;
1416;SDS011;703;51.162;13.574;2023-07-13T11:33:48;4.07;;;3.70;;
1416;SDS011;703;51.162;13.574;2023-07-13T11:35:44;5.57;;;3.70;;
1416;SDS011;703;51.162;13.574;2023-07-13T11:38:32;6.40;;;3.87;;
1416;SDS011;703;51.162;13.574;2023-07-13T11:41:10;5.20;;;3.60;;
1416;SDS011;703;51.162;13.574;2023-07-13T11:43:55;3.80;;;3.50;;
1416;SDS011;703;51.162;13.574;2023-07-13T11:46:27;3.87;;;3.57;;
1416;SDS011;703;51.162;13.574;2023-07-13T11:48:53;6.20;;;3.87;;
1416;SDS011;703;51.162;13.574;2023-07-13T11:53:56;4.63;;;3.77;;
1416;SDS011;703;51.162;13.574;2023-07-13T11:56:26;7.53;;;4.07;;
1416;SDS011;703;51.162;13.574;2023-07-13T11:58:53;5.50;;;3.67;;
1416;SDS011;703;51.162;13.574;2023-07-13T12:01:22;3.83;;;2.97;;
1416;SDS011;703;51.162;13.574;2023-07-13T12:03:58;3.87;;;3.57;;
1416;SDS011;703;51.162;13.574;2023-07-13T12:06:30;9.80;;;3.60;;
1416;SDS011;703;51.162;13.574;2023-07-13T12:08:58;4.10;;;3.70;;
1416;SDS011;703;51.162;13.574;2023-07-13T12:11:25;3.57;;;3.30;;
1416;SDS011;703;51.162;13.574;2023-07-13T12:13:52;4.40;;;3.27;;
1416;SDS011;703;51.162;13.574;2023-07-13T12:16:31;3.10;;;2.83;;
1416;SDS011;703;51.162;13.574;2023-07-13T12:18:58;3.43;;;3.20;;
1416;SDS011;703;51.162;13.574;2023-07-13T12:21:30;3.73;;;3.20;;
1416;SDS011;703;51.162;13.574;2023-07-13T12:23:57;3.47;;;3.17;;
1416;SDS011;703;51.162;13.574;2023-07-13T12:26:23;3.47;;;2.77;;
1416;SDS011;703;51.162;13.574;2023-07-13T12:28:51;3.40;;;3.10;;
1416;SDS011;703;51.162;13.574;2023-07-13T12:34:01;7.43;;;3.93;;
1416;SDS011;703;51.162;13.574;2023-07-13T12:36:32;4.40;;;4.00;;
1416;SDS011;703;51.162;13.574;2023-07-13T12:39:02;3.90;;;3.60;;
1416;SDS011;703;51.162;13.574;2023-07-13T12:41:36;3.60;;;3.30;;
1416;SDS011;703;51.162;13.574;2023-07-13T12:44:02;3.60;;;3.30;;
1416;SDS011;703;51.162;13.574;2023-07-13T12:46:28;7.20;;;3.90;;
1416;SDS011;703;51.162;13.574;2023-07-13T12:48:54;5.53;;;3.23;;
1416;SDS011;703;51.162;13.574;2023-07-13T12:51:23;4.10;;;3.70;;
1416;SDS011;703;51.162;13.574;2023-07-13T12:53:56;3.90;;;3.53;;
1416;SDS011;703;51.162;13.574;2023-07-13T12:56:30;4.80;;;3.50;;
1416;SDS011;703;51.162;13.574;2023-07-13T12:59:03;5.73;;;3.60;;
1416;SDS011;703;51.162;13.574;2023-07-13T13:01:31;5.07;;;3.80;;
1416;SDS011;703;51.162;13.574;2023-07-13T13:04:00;4.77;;;3.60;;
1416;SDS011;703;51.162;13.574;2023-07-13T13:06:32;3.43;;;3.23;;
1416;SDS011;703;51.162;13.574;2023-07-13T13:08:58;5.20;;;3.83;;
1416;SDS011;703;51.162;13.574;2023-07-13T13:11:25;5.13;;;4.03;;
1416;SDS011;703;51.162;13.574;2023-07-13T13:13:52;5.93;;;3.73;;
1416;SDS011;703;51.162;13.574;2023-07-13T13:16:20;3.90;;;3.40;;
1416;SDS011;703;51.162;13.574;2023-07-13T13:19:25;7.40;;;3.13;;
1416;SDS011;703;51.162;13.574;2023-07-13T13:21:53;4.13;;;3.60;;
1416;SDS011;703;51.162;13.574;2023-07-13T13:24:22;4.13;;;3.73;;
1416;SDS011;703;51.162;13.574;2023-07-13T13:26:50;7.13;;;3.77;;
1416;SDS011;703;51.162;13.574;2023-07-13T13:29:22;4.10;;;3.20;;
1416;SDS011;703;51.162;13.574;2023-07-13T13:31:49;6.10;;;3.00;;
1416;SDS011;703;51.162;13.574;2023-07-13T13:34:16;5.30;;;3.73;;
1416;SDS011;703;51.162;13.574;2023-07-13T13:36:43;4.37;;;3.40;;
1416;SDS011;703;51.162;13.574;2023-07-13T13:39:21;2.87;;;2.67;;
1416;SDS011;703;51.162;13.574;2023-07-13T13:41:50;3.90;;;3.50;;
1416;SDS011;703;51.162;13.574;2023-07-13T13:44:17;3.63;;;3.13;;
1416;SDS011;703;51.162;13.574;2023-07-13T13:46:44;6.60;;;3.60;;
1416;SDS011;703;51.162;13.574;2023-07-13T13:49:13;4.30;;;4.00;;
1416;SDS011;703;51.162;13.574;2023-07-13T13:51:41;4.20;;;3.80;;
1416;SDS011;703;51.162;13.574;2023-07-13T13:54:10;14.83;;;4.33;;
1416;SDS011;703;51.162;13.574;2023-07-13T13:56:43;4.57;;;3.90;;
1416;SDS011;703;51.162;13.574;2023-07-13T13:59:10;3.70;;;3.30;;
1416;SDS011;703;51.162;13.574;2023-07-13T14:01:37;4.17;;;3.10;;
1416;SDS011;703;51.162;13.574;2023-07-13T14:04:03;4.10;;;3.20;;
1416;SDS011;703;51.162;13.574;2023-07-13T14:06:30;6.53;;;3.60;;
1416;SDS011;703;51.162;13.574;2023-07-13T14:08:57;3.20;;;2.90;;
1416;SDS011;703;51.162;13.574;2023-07-13T14:11:24;3.13;;;2.83;;
1416;SDS011;703;51.162;13.574;2023-07-13T14:13:52;8.07;;;3.50;;
1416;SDS011;703;51.162;13.574;2023-07-13T14:16:32;4.13;;;3.63;;
1416;SDS011;703;51.162;13.574;2023-07-13T14:18:58;6.63;;;3.30;;
1416;SDS011;703;51.162;13.574;2023-07-13T14:21:25;3.90;;;3.50;;
1416;SDS011;703;51.162;13.574;2023-07-13T14:23:53;3.03;;;2.77;;
1416;SDS011;703;51.162;13.574;2023-07-13T14:28:50;2.93;;;2.63;;
1416;SDS011;703;51.162;13.574;2023-07-13T14:31:18;2.73;;;2.53;;
1416;SDS011;703;51.162;13.574;2023-07-13T14:33:44;3.40;;;3.10;;
1416;SDS011;703;51.162;13.574;2023-07-13T14:39:16;3.27;;;2.93;;
1416;SDS011;703;51.162;13.574;2023-07-13T14:41:43;4.13;;;3.23;;
1416;SDS011;703;51.162;13.574;2023-07-13T14:44:13;4.50;;;2.70;;
1416;SDS011;703;51.162;13.574;2023-07-13T14:46:40;9.03;;;3.70;;
1416;SDS011;703;51.162;13.574;2023-07-13T14:49:52;7.70;;;2.77;;
1416;SDS011;703;51.162;13.574;2023-07-13T14:52:01;3.07;;;2.87;;
1416;SDS011;703;51.162;13.574;2023-07-13T14:54:30;4.67;;;3.30;;
1416;SDS011;703;51.162;13.574;2023-07-13T14:56:56;3.20;;;2.90;;
1416;SDS011;703;51.162;13.574;2023-07-13T14:59:22;2.60;;;2.40;;
1416;SDS011;703;51.162;13.574;2023-07-13T15:01:49;5.90;;;3.00;;
1416;SDS011;703;51.162;13.574;2023-07-13T15:04:15;2.70;;;2.50;;
1416;SDS011;703;51.162;13.574;2023-07-13T15:06:55;2.70;;;2.50;;
1416;SDS011;703;51.162;13.574;2023-07-13T15:09:26;7.60;;;3.30;;
1416;SDS011;703;51.162;13.574;2023-07-13T15:11:54;2.00;;;1.90;;
1416;SDS011;703;51.162;13.574;2023-07-13T15:14:21;2.30;;;2.20;;
1416;SDS011;703;51.162;13.574;2023-07-13T15:16:49;3.17;;;2.47;;
1416;SDS011;703;51.162;13.574;2023-07-13T15:19:17;3.93;;;2.80;;
1416;SDS011;703;51.162;13.574;2023-07-13T15:21:44;2.40;;;2.20;;
1416;SDS011;703;51.162;13.574;2023-07-13T15:24:10;2.57;;;2.37;;
1416;SDS011;703;51.162;13.574;2023-07-13T15:26:36;2.13;;;2.03;;
1416;SDS011;703;51.162;13.574;2023-07-13T15:29:03;2.97;;;2.67;;
1416;SDS011;703;51.162;13.574;2023-07-13T15:31:29;6.03;;;3.20;;
1416;SDS011;703;51.162;13.574;2023-07-13T15:33:57;2.53;;;2.20;;
1416;SDS011;703;51.162;13.574;2023-07-13T15:36:24;2.67;;;2.47;;
1416;SDS011;703;51.162;13.574;2023-07-13T15:38:52;4.63;;;2.60;;
1416;SDS011;703;51.162;13.574;2023-07-13T15:43:51;2.80;;;2.60;;
1416;SDS011;703;51.162;13.574;2023-07-13T15:46:19;4.20;;;2.30;;
1416;SDS011;703;51.162;13.574;2023-07-13T15:48:47;3.30;;;3.00;;
1416;SDS011;703;51.162;13.574;2023-07-13T15:51:23;3.20;;;2.90;;
1416;SDS011;703;51.162;13.574;2023-07-13T15:53:52;2.60;;;2.37;;
1416;SDS011;703;51.162;13.574;2023-07-13T15:56:21;2.60;;;2.40;;
1416;SDS011;703;51.162;13.574;2023-07-13T15:58:49;2.50;;;2.30;;
1416;SDS011;703;51.162;13.574;2023-07-13T16:03:41;2.67;;;2.57;;
1416;SDS011;703;51.162;13.574;2023-07-13T16:06:12;3.30;;;2.93;;
1416;SDS011;703;51.162;13.574;2023-07-13T16:08:42;2.83;;;2.40;;
1416;SDS011;703;51.162;13.574;2023-07-13T16:11:15;3.30;;;2.87;;
1416;SDS011;703;51.162;13.574;2023-07-13T16:13:43;3.70;;;3.40;;
1416;SDS011;703;51.162;13.574;2023-07-13T16:16:13;4.20;;;3.60;;
1416;SDS011;703;51.162;13.574;2023-07-13T16:18:40;3.67;;;2.80;;
1416;SDS011;703;51.162;13.574;2023-07-13T16:21:10;3.40;;;3.20;;